Time,TemperatureF,DewpointF,PressureIn,WindDirection,WindDirectionDegrees,WindSpeedMPH,WindSpeedGustMPH,Humidity,HourlyPrecipIn,Conditions,Clouds,dailyrainin,SoftwareType,DateUTC
2013-02-09 00:02:00,37.0,31.0,30.29,WNW,291,3.0,9.0,80,0.00,,,0.06,,2013-02-09 05:02:00,
2013-02-09 00:12:00,37.0,31.0,30.29,WNW,291,3.0,9.0,80,0.00,,,0.06,,2013-02-09 05:12:00,
2013-02-09 00:22:00,37.0,31.0,30.29,WNW,288,1.0,3.0,79,0.00,,,0.06,,2013-02-09 05:22:00,
2013-02-09 00:32:00,37.0,31.0,30.29,NW,304,1.0,3.0,80,0.00,,,0.06,,2013-02-09 05:32:00,
2013-02-09 00:42:00,37.0,31.0,30.29,NW,304,1.0,3.0,80,0.00,,,0.06,,2013-02-09 05:42:00,
2013-02-09 00:52:00,35.0,30.0,30.30,West,260,0.0,2.0,81,0.00,,,0.06,,2013-02-09 05:52:00,
2013-02-09 01:01:00,35.0,30.0,30.31,West,261,0.0,2.0,83,0.00,,,0.06,,2013-02-09 06:01:00,
2013-02-09 01:11:00,35.0,30.0,30.31,West,261,0.0,2.0,83,0.00,,,0.06,,2013-02-09 06:11:00,
2013-02-09 01:21:00,34.0,30.0,30.32,ESE,122,0.0,0.0,85,0.00,,,0.06,,2013-02-09 06:21:00,
2013-02-09 01:32:00,33.0,29.0,30.32,ESE,122,0.0,0.0,85,0.00,,,0.06,,2013-02-09 06:32:00,
2013-02-09 01:42:00,33.0,29.0,30.32,ESE,122,0.0,0.0,85,0.00,,,0.06,,2013-02-09 06:42:00,
2013-02-09 01:52:00,32.0,28.0,30.32,ESE,122,0.0,1.0,86,0.00,,,0.05,,2013-02-09 06:52:00,
2013-02-09 02:01:00,31.0,28.0,30.32,East,90,0.0,1.0,87,0.00,,,0.05,,2013-02-09 07:01:00,
2013-02-09 02:11:00,31.0,28.0,30.32,East,90,0.0,1.0,87,0.00,,,0.05,,2013-02-09 07:11:00,
2013-02-09 02:21:00,30.0,27.0,30.32,East,90,0.0,1.0,90,0.00,,,0.05,,2013-02-09 07:21:00,
2013-02-09 02:31:00,30.0,27.0,30.32,East,90,0.0,1.0,90,0.00,,,0.05,,2013-02-09 07:31:00,
2013-02-09 02:42:00,30.0,27.0,30.32,East,90,0.0,1.0,90,0.00,,,0.05,,2013-02-09 07:42:00,
2013-02-09 02:52:00,30.0,28.0,30.33,ESE,105,1.0,3.0,92,0.00,,,0.05,,2013-02-09 07:52:00,
2013-02-09 03:01:00,29.0,27.0,30.33,ESE,106,0.0,2.0,92,0.00,,,0.05,,2013-02-09 08:01:00,
2013-02-09 03:11:00,29.0,27.0,30.33,ESE,106,0.0,2.0,92,0.00,,,0.05,,2013-02-09 08:11:00,
2013-02-09 03:21:00,29.0,27.0,30.35,ESE,107,0.0,0.0,92,0.00,,,0.05,,2013-02-09 08:21:00,
2013-02-09 03:31:00,29.0,27.0,30.35,ESE,107,0.0,0.0,92,0.00,,,0.04,,2013-02-09 08:31:00,
2013-02-09 03:42:00,29.0,27.0,30.35,ESE,107,0.0,0.0,92,0.00,,,0.04,,2013-02-09 08:42:00,
2013-02-09 03:52:00,29.0,27.0,30.34,ESE,107,0.0,1.0,92,0.00,,,0.04,,2013-02-09 08:52:00,
2013-02-09 04:03:00,28.0,26.0,30.34,ESE,106,0.0,0.0,92,0.00,,,0.04,,2013-02-09 09:03:00,
2013-02-09 04:11:00,28.0,26.0,30.34,ESE,106,0.0,0.0,92,0.00,,,0.04,,2013-02-09 09:11:00,
2013-02-09 04:21:00,28.0,26.0,30.35,ESE,107,0.0,0.0,93,0.00,,,0.04,,2013-02-09 09:21:00,
2013-02-09 04:32:00,28.0,26.0,30.35,ESE,107,0.0,0.0,93,0.00,,,0.04,,2013-02-09 09:32:00,
2013-02-09 04:42:00,28.0,26.0,30.35,ESE,107,0.0,0.0,93,0.00,,,0.04,,2013-02-09 09:42:00,
2013-02-09 04:52:00,28.0,26.0,30.37,ESE,107,0.0,0.0,93,0.00,,,0.04,,2013-02-09 09:52:00,
2013-02-09 05:01:00,28.0,26.0,30.37,ESE,107,0.0,0.0,93,0.00,,,0.04,,2013-02-09 10:01:00,
2013-02-09 05:11:00,28.0,26.0,30.37,ESE,107,0.0,0.0,93,0.00,,,0.04,,2013-02-09 10:11:00,
2013-02-09 05:21:00,27.0,26.0,30.38,ESE,107,0.0,1.0,94,0.00,,,0.04,,2013-02-09 10:21:00,
2013-02-09 05:32:00,27.0,25.0,30.39,ESE,106,0.0,0.0,93,0.00,,,0.04,,2013-02-09 10:32:00,
2013-02-09 05:42:00,27.0,25.0,30.39,ESE,106,0.0,0.0,93,0.00,,,0.04,,2013-02-09 10:42:00,
2013-02-09 05:52:00,27.0,26.0,30.40,ESE,106,0.0,0.0,94,0.00,,,0.04,,2013-02-09 10:52:00,
2013-02-09 06:01:00,27.0,26.0,30.40,ESE,107,0.0,0.0,94,0.00,,,0.04,,2013-02-09 11:01:00,
2013-02-09 06:11:00,27.0,26.0,30.40,ESE,107,0.0,0.0,94,0.00,,,0.04,,2013-02-09 11:11:00,
2013-02-09 06:22:00,27.0,26.0,30.41,ESE,106,0.0,0.0,94,0.00,,,0.04,,2013-02-09 11:22:00,
2013-02-09 06:32:00,27.0,26.0,30.41,ESE,106,0.0,0.0,94,0.00,,,0.04,,2013-02-09 11:32:00,
2013-02-09 06:41:00,27.0,26.0,30.41,ESE,106,0.0,0.0,94,0.00,,,0.04,,2013-02-09 11:41:00,
2013-02-09 06:52:00,26.0,25.0,30.43,NNE,26,0.0,2.0,94,0.00,,,0.04,,2013-02-09 11:52:00,
2013-02-09 07:02:00,26.0,25.0,30.42,NNE,26,0.0,1.0,94,0.00,,,0.04,,2013-02-09 12:02:00,
2013-02-09 07:11:00,26.0,25.0,30.42,NNE,26,0.0,1.0,94,0.00,,,0.04,,2013-02-09 12:11:00,
2013-02-09 07:22:00,26.0,25.0,30.43,NNE,26,0.0,0.0,94,0.00,,,0.04,,2013-02-09 12:22:00,
2013-02-09 07:32:00,26.0,25.0,30.43,NNE,26,0.0,0.0,94,0.00,,,0.04,,2013-02-09 12:32:00,
2013-02-09 07:42:00,26.0,25.0,30.43,NNE,26,0.0,0.0,94,0.00,,,0.04,,2013-02-09 12:42:00,
2013-02-09 07:52:00,26.0,25.0,30.45,NNE,26,0.0,1.0,95,0.00,,,0.04,,2013-02-09 12:52:00,
2013-02-09 08:02:00,26.0,25.0,30.45,NNE,25,0.0,1.0,95,0.00,,,0.04,,2013-02-09 13:02:00,
2013-02-09 08:11:00,26.0,25.0,30.45,NNE,25,0.0,1.0,95,0.00,,,0.04,,2013-02-09 13:11:00,
2013-02-09 08:22:00,26.0,25.0,30.47,NNE,26,0.0,1.0,95,0.00,,,0.04,,2013-02-09 13:22:00,
2013-02-09 08:32:00,26.0,25.0,30.47,NNE,26,0.0,1.0,96,0.00,,,0.04,,2013-02-09 13:32:00,
2013-02-09 08:42:00,26.0,25.0,30.47,NNE,26,0.0,1.0,96,0.00,,,0.04,,2013-02-09 13:42:00,
2013-02-09 08:52:00,27.0,26.0,30.48,NNE,26,0.0,1.0,96,0.00,,,0.04,,2013-02-09 13:52:00,
2013-02-09 09:01:00,27.0,26.0,30.48,NNE,26,0.0,1.0,96,0.00,,,0.04,,2013-02-09 14:01:00,
2013-02-09 09:10:00,29.0,28.0,30.49,NNE,26,0.0,1.0,97,0.00,,,0.04,,2013-02-09 14:10:00,
2013-02-09 09:11:00,27.0,26.0,30.48,NNE,26,0.0,1.0,96,0.00,,,0.04,,2013-02-09 14:11:00,
2013-02-09 09:21:00,27.0,26.0,30.49,NNE,26,0.0,0.0,96,0.00,,,0.04,,2013-02-09 14:21:00,
2013-02-09 09:32:00,29.0,28.0,30.49,NNE,26,0.0,1.0,97,0.00,,,0.04,,2013-02-09 14:32:00,
2013-02-09 09:42:00,29.0,28.0,30.49,NNE,26,0.0,1.0,97,0.00,,,0.04,,2013-02-09 14:42:00,
2013-02-09 09:52:00,29.0,28.0,30.49,NNE,26,0.0,1.0,97,0.00,,,0.04,,2013-02-09 14:52:00,
2013-02-09 10:02:00,29.0,28.0,30.49,NNE,26,0.0,1.0,97,0.00,,,0.04,,2013-02-09 15:02:00,
2013-02-09 10:22:00,33.0,32.0,30.49,NNE,26,0.0,0.0,98,0.00,,,0.04,,2013-02-09 15:22:00,
2013-02-09 10:32:00,35.0,34.0,30.49,NNE,28,0.0,0.0,98,0.00,,,0.03,,2013-02-09 15:32:00,
2013-02-09 10:42:00,35.0,34.0,30.49,NNE,28,0.0,0.0,98,0.00,,,0.03,,2013-02-09 15:42:00,
2013-02-09 10:52:00,40.0,33.0,30.49,SSE,150,0.0,1.0,76,0.00,,,0.02,,2013-02-09 15:52:00,
2013-02-09 11:01:00,40.0,33.0,30.49,SSE,150,0.0,1.0,76,0.00,,,0.02,,2013-02-09 16:01:00,
2013-02-09 11:11:00,40.0,33.0,30.49,SSE,150,0.0,1.0,76,0.00,,,0.02,,2013-02-09 16:11:00,
2013-02-09 11:22:00,51.0,26.0,30.47,ESE,117,1.0,5.0,38,0.00,,,0.01,,2013-02-09 16:22:00,
2013-02-09 11:31:00,53.0,26.0,30.47,SSE,148,0.0,3.0,35,0.00,,,0.01,,2013-02-09 16:31:00,
2013-02-09 11:52:00,56.0,25.0,30.45,ESE,122,1.0,3.0,30,0.00,,,0.01,,2013-02-09 16:52:00,
2013-02-09 12:01:00,56.0,27.0,30.45,SE,126,0.0,2.0,32,0.00,,,0.01,,2013-02-09 17:01:00,
2013-02-09 12:21:00,56.0,27.0,30.45,SE,144,0.0,3.0,32,0.00,,,0.01,,2013-02-09 17:21:00,
2013-02-09 12:32:00,56.0,24.0,30.44,ESE,120,0.0,5.0,29,0.00,,,0.01,,2013-02-09 17:32:00,
2013-02-09 12:42:00,56.0,24.0,30.44,ESE,120,0.0,5.0,29,0.00,,,0.01,,2013-02-09 17:42:00,
2013-02-09 12:52:00,58.0,28.0,30.44,ESE,122,1.0,3.0,32,0.00,,,0.01,,2013-02-09 17:52:00,
2013-02-09 13:02:00,58.0,28.0,30.44,ESE,122,1.0,3.0,32,0.00,,,0.01,,2013-02-09 18:02:00,
2013-02-09 13:12:00,58.0,28.0,30.44,ESE,122,1.0,3.0,32,0.00,,,0.01,,2013-02-09 18:12:00,
2013-02-09 13:23:00,59.0,28.0,30.42,ESE,121,1.0,5.0,30,0.00,,,0.01,,2013-02-09 18:23:00,
2013-02-09 13:32:00,60.0,27.0,30.42,ESE,117,2.0,3.0,28,0.00,,,0.01,,2013-02-09 18:32:00,
2013-02-09 13:42:00,60.0,27.0,30.42,ESE,117,2.0,3.0,28,0.00,,,0.01,,2013-02-09 18:42:00,
2013-02-09 13:52:00,62.0,27.0,30.40,ESE,105,0.0,3.0,26,0.00,,,0.01,,2013-02-09 18:52:00,
2013-02-09 14:01:00,63.0,27.0,30.40,SSE,158,1.0,3.0,25,0.00,,,0.01,,2013-02-09 19:01:00,
2013-02-09 14:11:00,63.0,27.0,30.40,SSE,158,1.0,3.0,25,0.00,,,0.01,,2013-02-09 19:11:00,
2013-02-09 14:22:00,64.0,26.0,30.39,ESE,117,1.0,5.0,24,0.00,,,0.01,,2013-02-09 19:22:00,
2013-02-09 14:32:00,64.0,25.0,30.39,SSE,161,1.0,3.0,23,0.00,,,0.01,,2013-02-09 19:32:00,
2013-02-09 14:42:00,64.0,25.0,30.39,SSE,161,1.0,3.0,23,0.00,,,0.01,,2013-02-09 19:42:00,
2013-02-09 14:52:00,64.0,28.0,30.37,ESE,105,1.0,3.0,26,0.00,,,0.01,,2013-02-09 19:52:00,
2013-02-09 15:01:00,63.0,28.0,30.37,SSE,147,1.0,3.0,26,0.00,,,0.01,,2013-02-09 20:01:00,
2013-02-09 15:11:00,63.0,28.0,30.37,SSE,147,1.0,3.0,26,0.00,,,0.01,,2013-02-09 20:11:00,
2013-02-09 15:21:00,63.0,27.0,30.37,ESE,112,1.0,3.0,25,0.00,,,0.01,,2013-02-09 20:21:00,
2013-02-09 15:32:00,62.0,25.0,30.37,ESE,119,0.0,3.0,24,0.00,,,0.01,,2013-02-09 20:32:00,
2013-02-09 15:42:00,62.0,25.0,30.37,ESE,119,0.0,3.0,24,0.00,,,0.01,,2013-02-09 20:42:00,
2013-02-09 15:52:00,62.0,26.0,30.37,SSE,159,0.0,5.0,25,0.00,,,0.01,,2013-02-09 20:52:00,
2013-02-09 16:02:00,61.0,25.0,30.38,SSE,158,0.0,3.0,25,0.00,,,0.01,,2013-02-09 21:02:00,
2013-02-09 16:12:00,61.0,25.0,30.38,SSE,158,0.0,3.0,25,0.00,,,0.01,,2013-02-09 21:12:00,
2013-02-09 16:21:00,62.0,26.0,30.37,SSE,164,0.0,3.0,25,0.00,,,0.01,,2013-02-09 21:21:00,
2013-02-09 16:32:00,62.0,25.0,30.37,SSE,165,0.0,6.0,24,0.00,,,0.01,,2013-02-09 21:32:00,
2013-02-09 16:42:00,62.0,25.0,30.37,SSE,165,0.0,6.0,24,0.00,,,0.01,,2013-02-09 21:42:00,
2013-02-09 16:52:00,61.0,28.0,30.38,ESE,121,0.0,2.0,28,0.00,,,0.01,,2013-02-09 21:52:00,
2013-02-09 17:01:00,60.0,25.0,30.38,SE,130,0.0,2.0,26,0.00,,,0.01,,2013-02-09 22:01:00,
2013-02-09 17:11:00,60.0,25.0,30.38,SE,130,0.0,2.0,26,0.00,,,0.01,,2013-02-09 22:11:00,
2013-02-09 17:21:00,59.0,26.0,30.39,SSE,155,0.0,3.0,28,0.00,,,0.01,,2013-02-09 22:21:00,
2013-02-09 17:32:00,59.0,26.0,30.38,SSE,148,0.0,3.0,28,0.00,,,0.01,,2013-02-09 22:32:00,
2013-02-09 17:42:00,59.0,26.0,30.38,SSE,148,0.0,3.0,28,0.00,,,0.01,,2013-02-09 22:42:00,
2013-02-09 17:52:00,58.0,27.0,30.39,East,101,0.0,3.0,30,0.00,,,0.00,,2013-02-09 22:52:00,
2013-02-09 18:02:00,57.0,28.0,30.39,ESE,111,0.0,1.0,33,0.00,,,0.00,,2013-02-09 23:02:00,
2013-02-09 18:11:00,57.0,28.0,30.39,ESE,111,0.0,1.0,33,0.00,,,0.00,,2013-02-09 23:11:00,
2013-02-09 18:21:00,56.0,30.0,30.40,ESE,112,0.0,0.0,37,0.00,,,0.00,,2013-02-09 23:21:00,
2013-02-09 18:32:00,55.0,33.0,30.40,ESE,111,0.0,0.0,44,0.00,,,0.00,,2013-02-09 23:32:00,
2013-02-09 18:52:00,53.0,35.0,30.42,ESE,112,0.0,0.0,50,0.00,,,0.00,,2013-02-09 23:52:00,
2013-02-09 19:02:00,50.0,35.0,30.42,ESE,112,0.0,0.0,56,0.00,,,0.00,,2013-02-10 00:02:00,
2013-02-09 19:22:00,47.0,34.0,30.44,ESE,112,0.0,0.0,60,0.00,,,0.00,,2013-02-10 00:22:00,
2013-02-09 19:32:00,45.0,33.0,30.44,ESE,112,0.0,0.0,62,0.00,,,0.00,,2013-02-10 00:32:00,
2013-02-09 19:42:00,45.0,33.0,30.44,ESE,112,0.0,0.0,62,0.00,,,0.00,,2013-02-10 00:42:00,
2013-02-09 19:52:00,43.0,32.0,30.45,ESE,111,0.0,0.0,66,0.00,,,0.00,,2013-02-10 00:52:00,
2013-02-09 20:01:00,42.0,32.0,30.46,ESE,112,0.0,1.0,67,0.00,,,0.00,,2013-02-10 01:01:00,
2013-02-09 20:12:00,42.0,32.0,30.46,ESE,112,0.0,1.0,67,0.00,,,0.00,,2013-02-10 01:12:00,
2013-02-09 20:21:00,41.0,31.0,30.47,ESE,112,0.0,0.0,68,0.00,,,0.00,,2013-02-10 01:21:00,
2013-02-09 20:32:00,40.0,31.0,30.47,ESE,111,0.0,0.0,69,0.00,,,0.00,,2013-02-10 01:32:00,
2013-02-09 20:42:00,40.0,31.0,30.47,ESE,111,0.0,0.0,69,0.00,,,0.00,,2013-02-10 01:42:00,
2013-02-09 20:52:00,39.0,30.0,30.46,ESE,112,0.0,0.0,70,0.00,,,0.00,,2013-02-10 01:52:00,
2013-02-09 21:01:00,39.0,30.0,30.46,ESE,112,0.0,0.0,70,0.00,,,0.00,,2013-02-10 02:01:00,
2013-02-09 21:11:00,39.0,30.0,30.46,ESE,112,0.0,0.0,70,0.00,,,0.00,,2013-02-10 02:11:00,
2013-02-09 21:22:00,39.0,30.0,30.46,ESE,112,0.0,0.0,70,0.00,,,0.00,,2013-02-10 02:22:00,
2013-02-09 21:32:00,37.0,30.0,30.47,ESE,112,0.0,1.0,76,0.00,,,0.00,,2013-02-10 02:32:00,
2013-02-09 21:42:00,37.0,30.0,30.47,ESE,112,0.0,1.0,76,0.00,,,0.00,,2013-02-10 02:42:00,
2013-02-09 21:52:00,36.0,30.0,30.47,ESE,112,0.0,1.0,79,0.00,,,0.00,,2013-02-10 02:52:00,
2013-02-09 22:02:00,36.0,30.0,30.47,ESE,112,0.0,1.0,79,0.00,,,0.00,,2013-02-10 03:02:00,
2013-02-09 22:11:00,36.0,30.0,30.47,ESE,112,0.0,1.0,79,0.00,,,0.00,,2013-02-10 03:11:00,
2013-02-09 22:21:00,36.0,30.0,30.47,NNE,32,0.0,2.0,80,0.00,,,0.00,,2013-02-10 03:21:00,
2013-02-09 22:32:00,36.0,31.0,30.47,NNE,32,0.0,1.0,81,0.00,,,0.00,,2013-02-10 03:32:00,
2013-02-09 22:42:00,36.0,31.0,30.47,NNE,32,0.0,1.0,81,0.00,,,0.00,,2013-02-10 03:42:00,
2013-02-09 22:52:00,37.0,32.0,30.44,NNE,32,0.0,1.0,81,0.00,,,0.00,,2013-02-10 03:52:00,
2013-02-09 23:01:00,36.0,31.0,30.44,NNE,18,0.0,1.0,82,0.00,,,0.00,,2013-02-10 04:01:00,
2013-02-09 23:11:00,36.0,31.0,30.44,NNE,18,0.0,1.0,82,0.00,,,0.00,,2013-02-10 04:11:00,
2013-02-09 23:21:00,36.0,31.0,30.44,NNE,18,0.0,1.0,82,0.00,,,0.00,,2013-02-10 04:21:00,
2013-02-09 23:32:00,36.0,31.0,30.44,East,80,0.0,1.0,83,0.00,,,0.00,,2013-02-10 04:32:00,
2013-02-09 23:42:00,36.0,31.0,30.44,East,80,0.0,1.0,83,0.00,,,0.00,,2013-02-10 04:42:00,
2013-02-09 23:52:00,36.0,31.0,30.44,East,80,0.0,1.0,83,0.00,,,0.00,,2013-02-10 04:52:00,